Time;durP1;ratioP1;P1;durP2;ratioP2;P2;SDS_P1;SDS_P2;PMS_P1;PMS_P2;Temp;Humidity;BMP_temperature;BMP_pressure;BME280_temperature;BME280_humidity;BME280_pressure;Samples;Min_cycle;Max_cycle;Signal;HPM_P1;HPM_P2
2022/01/29 00:00:38;;;;;;;1.02;0.80;;;;;;;1.42;78.61;98379.95;1743202;81;21039;-40
2022/01/29 00:03:05;;;;;;;0.95;0.70;;;;;;;1.43;78.65;98377.52;1732545;81;21519;-40
2022/01/29 00:05:33;;;;;;;0.90;0.80;;;;;;;1.42;78.58;98391.97;1731445;81;21557;-40
2022/01/29 00:07:59;;;;;;;1.40;0.70;;;;;;;1.40;78.51;98390.19;1731581;82;20986;-40
2022/01/29 00:10:26;;;;;;;0.75;0.75;;;;;;;1.38;78.69;98391.84;1731858;82;21784;-40
2022/01/29 00:12:53;;;;;;;1.00;0.70;;;;;;;1.37;78.70;98395.61;1731319;82;20999;-41
2022/01/29 00:15:20;;;;;;;1.00;0.70;;;;;;;1.38;78.68;98396.39;1731364;81;20960;-40
2022/01/29 00:17:47;;;;;;;1.02;0.80;;;;;;;1.39;78.67;98397.96;1731344;82;21103;-40
2022/01/29 00:20:14;;;;;;;0.70;0.70;;;;;;;1.38;78.69;98408.41;1732830;81;21048;-40
2022/01/29 00:22:41;;;;;;;1.27;0.80;;;;;;;1.39;78.69;98401.42;1746337;81;21942;-41
2022/01/29 00:25:10;;;;;;;0.80;0.80;;;;;;;1.39;78.70;98413.98;1751501;81;21091;-40
2022/01/29 00:27:37;;;;;;;1.22;1.00;;;;;;;1.39;78.67;98412.65;1759192;81;21688;-40
2022/01/29 00:30:13;;;;;;;0.78;0.75;;;;;;;1.41;78.73;98413.09;1731639;81;21035;-40
2022/01/29 00:32:38;;;;;;;1.75;0.70;;;;;;;1.38;78.70;98411.08;1736969;81;21084;-40
2022/01/29 00:35:07;;;;;;;0.90;0.70;;;;;;;1.39;78.78;98419.33;1754641;81;21109;-40
2022/01/29 00:37:33;;;;;;;1.30;1.10;;;;;;;1.39;78.72;98422.00;1757220;81;20893;-40
2022/01/29 00:40:00;;;;;;;1.10;0.70;;;;;;;1.38;78.65;98424.43;1731506;81;21048;-40
2022/01/29 00:42:26;;;;;;;0.85;0.75;;;;;;;1.37;78.71;98428.20;1737659;81;20976;-40
2022/01/29 00:44:53;;;;;;;0.82;0.80;;;;;;;1.36;78.66;98425.30;1735747;81;21867;-40
2022/01/29 00:47:20;;;;;;;1.30;0.82;;;;;;;1.35;78.63;98421.87;1741270;81;21140;-40
2022/01/29 00:49:46;;;;;;;0.88;0.80;;;;;;;1.37;78.64;98429.53;1747710;81;20976;-40
2022/01/29 00:52:13;;;;;;;0.53;0.53;;;;;;;1.38;78.57;98433.23;1731504;81;21110;-40
2022/01/29 00:54:40;;;;;;;0.70;0.70;;;;;;;1.38;78.41;98431.89;1748228;81;21795;-40
2022/01/29 00:57:06;;;;;;;1.37;0.90;;;;;;;1.38;78.49;98436.45;1756762;81;21527;-40
2022/01/29 00:59:34;;;;;;;2.58;1.07;;;;;;;1.37;78.44;98432.20;1735830;81;21095;-40
2022/01/29 01:02:03;;;;;;;1.25;0.90;;;;;;;1.34;78.45;98436.31;1731461;82;21020;-40
2022/01/29 01:04:32;;;;;;;0.72;0.70;;;;;;;1.31;78.55;98439.06;1738318;81;20956;-41
2022/01/29 01:06:58;;;;;;;0.82;0.82;;;;;;;1.28;78.58;98435.70;1731164;82;21011;-41
2022/01/29 01:09:25;;;;;;;0.80;0.80;;;;;;;1.26;78.77;98433.89;1731456;82;21103;-40
2022/01/29 01:11:51;;;;;;;0.60;0.60;;;;;;;1.25;78.70;98440.36;1750756;81;21034;-40
2022/01/29 01:14:18;;;;;;;0.85;0.70;;;;;;;1.23;78.83;98432.42;1760043;81;21786;-40
2022/01/29 01:16:44;;;;;;;0.72;0.60;;;;;;;1.20;78.93;98438.41;1731406;82;21004;-40
2022/01/29 01:19:11;;;;;;;1.72;0.75;;;;;;;1.18;79.01;98442.73;1731701;81;21043;-40
2022/01/29 01:21:37;;;;;;;1.02;0.88;;;;;;;1.17;79.06;98440.38;1731349;82;21491;-41
2022/01/29 01:24:06;;;;;;;0.55;0.55;;;;;;;1.16;78.97;98442.25;1731397;82;21031;-40
2022/01/29 01:26:33;;;;;;;0.65;0.60;;;;;;;1.15;78.91;98448.72;1731177;82;21087;-40
2022/01/29 01:29:00;;;;;;;0.70;0.70;;;;;;;1.17;78.97;98450.50;1732602;81;21518;-40
2022/01/29 01:31:26;;;;;;;0.50;0.50;;;;;;;1.18;78.92;98452.08;1731165;82;20984;-40
2022/01/29 01:33:52;;;;;;;0.93;0.70;;;;;;;1.14;78.83;98443.14;1735914;81;21586;-40
2022/01/29 01:36:23;;;;;;;0.68;0.68;;;;;;;1.14;78.83;98457.04;1743083;81;21070;-40
2022/01/29 01:38:56;;;;;;;0.95;0.72;;;;;;;1.14;78.73;98458.38;1748173;81;20997;-40
2022/01/29 01:41:21;;;;;;;1.37;0.75;;;;;;;1.15;78.82;98466.07;1748193;81;20972;-40
2022/01/29 01:43:45;;;;;;;1.03;0.67;;;;;;;1.16;78.88;98459.61;1761267;81;21048;-40
2022/01/29 01:46:11;;;;;;;0.50;0.50;;;;;;;1.18;78.70;98473.43;1738021;81;21022;-40
2022/01/29 01:48:37;;;;;;;1.37;0.85;;;;;;;1.17;78.62;98467.85;1733721;81;21093;-40
2022/01/29 01:51:04;;;;;;;0.70;0.70;;;;;;;1.15;78.44;98470.63;1736985;81;21083;-40
2022/01/29 01:53:32;;;;;;;0.70;0.70;;;;;;;1.14;78.29;98483.19;1743659;80;21089;-41
2022/01/29 01:55:58;;;;;;;0.65;0.55;;;;;;;1.14;78.32;98482.40;1731032;80;20983;-40
2022/01/29 01:58:25;;;;;;;0.80;0.70;;;;;;;1.17;78.34;98489.75;1747099;81;21546;-40
2022/01/29 02:00:53;;;;;;;0.85;0.70;;;;;;;1.16;78.36;98488.22;1759318;80;20928;-40
2022/01/29 02:03:22;;;;;;;0.80;0.80;;;;;;;1.14;78.38;98492.52;1773271;80;21627;-40
2022/01/29 02:05:48;;;;;;;0.78;0.60;;;;;;;1.12;78.21;98504.06;1732394;82;21502;-40
2022/01/29 02:08:16;;;;;;;0.50;0.50;;;;;;;1.12;78.11;98501.39;1757903;81;21117;-41
2022/01/29 02:10:47;;;;;;;0.70;0.70;;;;;;;1.11;77.65;98510.52;1731975;82;21079;-40
2022/01/29 02:13:14;;;;;;;0.60;0.60;;;;;;;1.11;77.58;98508.40;1757882;81;21867;-41
2022/01/29 02:15:40;;;;;;;0.68;0.60;;;;;;;1.10;77.77;98515.63;1731834;81;20999;-40
2022/01/29 02:18:14;;;;;;;1.00;0.60;;;;;;;1.08;77.89;98506.34;1757923;81;21010;-40
2022/01/29 02:20:39;;;;;;;0.65;0.65;;;;;;;1.09;77.86;98522.05;1733128;81;21044;-40
2022/01/29 02:23:05;;;;;;;0.75;0.60;;;;;;;1.10;77.69;98521.51;1758082;81;21485;-40
2022/01/29 02:25:43;;;;;;;1.02;0.80;;;;;;;1.10;77.53;98530.30;1757937;81;21816;-40
2022/01/29 02:28:19;;;;;;;1.87;1.00;;;;;;;1.12;77.30;98537.42;1757731;81;20959;-40
2022/01/29 02:30:50;;;;;;;1.05;0.88;;;;;;;1.14;77.34;98541.91;1731974;82;20948;-40
2022/01/29 02:33:17;;;;;;;1.75;0.98;;;;;;;1.16;77.18;98542.36;1757742;81;21035;-40
2022/01/29 02:35:47;;;;;;;1.12;0.90;;;;;;;1.18;77.12;98552.19;1758042;81;20972;-41
2022/01/29 02:38:15;;;;;;;1.55;0.82;;;;;;;1.19;77.10;98551.64;1735690;81;21876;-41
2022/01/29 02:40:50;;;;;;;0.75;0.75;;;;;;;1.20;77.04;98556.67;1757993;81;20998;-40
2022/01/29 02:43:31;;;;;;;1.10;0.70;;;;;;;1.23;77.15;98560.02;1735269;81;21554;-40
2022/01/29 02:46:04;;;;;;;0.60;0.60;;;;;;;1.22;77.12;98566.46;1770707;80;21042;-41
2022/01/29 02:48:26;;;;;;;0.70;0.70;;;;;;;1.19;77.09;98571.66;1731244;81;21048;-40
2022/01/29 02:50:52;;;;;;;0.80;0.65;;;;;;;1.18;77.30;98580.21;1765949;80;21145;-40
2022/01/29 02:53:19;;;;;;;1.00;0.60;;;;;;;1.16;77.22;98577.06;1764052;80;21022;-41
2022/01/29 02:55:45;;;;;;;0.60;0.60;;;;;;;1.13;77.54;98572.37;1732061;82;21318;-41
2022/01/29 02:58:12;;;;;;;1.47;0.80;;;;;;;1.13;77.62;98580.38;1770906;80;21340;-40
2022/01/29 03:00:39;;;;;;;0.60;0.60;;;;;;;1.11;77.68;98585.81;1786888;80;21055;-40
2022/01/29 03:03:06;;;;;;;0.75;0.70;;;;;;;1.10;77.90;98593.03;1747029;81;21814;-41
2022/01/29 03:05:33;;;;;;;0.68;0.68;;;;;;;1.12;77.92;98597.48;1764172;80;21585;-40
2022/01/29 03:09:14;;;;;;;1.10;0.90;;;;;;;1.15;77.98;98601.42;1797273;79;22571;-40
2022/01/29 03:11:43;;;;;;;0.50;0.50;;;;;;;1.05;78.17;98610.54;1732858;81;20965;-39
2022/01/29 03:14:09;;;;;;;0.88;0.60;;;;;;;1.05;78.27;98614.55;1749920;81;21180;-39
2022/01/29 03:16:36;;;;;;;0.70;0.70;;;;;;;1.05;78.37;98613.20;1732584;81;20969;-39
2022/01/29 03:19:03;;;;;;;0.72;0.70;;;;;;;1.04;78.32;98619.64;1745997;81;21585;-40
2022/01/29 03:21:29;;;;;;;0.88;0.68;;;;;;;1.01;78.34;98624.28;1723575;83;20944;-39
2022/01/29 03:23:55;;;;;;;0.62;0.62;;;;;;;0.99;78.34;98625.13;1690200;83;20957;-39
2022/01/29 03:26:23;;;;;;;0.78;0.78;;;;;;;0.98;78.21;98638.23;1672380;84;21953;-39
2022/01/29 03:28:49;;;;;;;0.85;0.68;;;;;;;1.00;78.23;98637.38;1718336;83;20941;-39
2022/01/29 03:31:16;;;;;;;0.80;0.80;;;;;;;1.00;78.21;98638.72;1718547;83;21061;-39
2022/01/29 03:33:44;;;;;;;0.72;0.72;;;;;;;1.01;78.20;98640.84;1718543;83;21013;-39
2022/01/29 03:36:10;;;;;;;1.30;0.90;;;;;;;1.04;78.14;98645.00;1682167;85;21073;-39
2022/01/29 03:38:40;;;;;;;1.27;0.90;;;;;;;1.05;78.06;98655.12;1692723;83;21196;-39
2022/01/29 03:41:06;;;;;;;0.80;0.80;;;;;;;1.04;78.01;98647.66;1701143;83;21512;-39
2022/01/29 03:43:40;;;;;;;1.12;0.90;;;;;;;1.05;78.07;98660.47;1696068;83;20935;-39
2022/01/29 03:46:02;;;;;;;1.25;0.90;;;;;;;1.07;78.08;98657.70;1709537;83;21045;-39
2022/01/29 03:48:29;;;;;;;1.45;1.00;;;;;;;1.07;78.09;98665.71;1710591;83;21065;-39
2022/01/29 03:50:55;;;;;;;1.45;0.90;;;;;;;1.07;78.15;98671.59;1704465;83;21115;-39
2022/01/29 03:53:22;;;;;;;1.40;0.90;;;;;;;1.08;78.21;98670.50;1698718;83;20977;-39
2022/01/29 03:55:49;;;;;;;0.80;0.80;;;;;;;1.07;78.20;98680.39;1710584;83;21053;-39
2022/01/29 03:58:15;;;;;;;2.05;0.70;;;;;;;1.10;78.15;98684.33;1711011;83;21006;-39
2022/01/29 04:00:42;;;;;;;1.00;0.75;;;;;;;1.09;77.95;98687.55;1709341;83;21058;-39
2022/01/29 04:03:09;;;;;;;0.95;0.78;;;;;;;1.10;77.77;98688.34;1709373;83;21105;-40
2022/01/29 04:05:36;;;;;;;0.75;0.68;;;;;;;1.10;77.23;98681.66;1710467;83;21018;-39
2022/01/29 04:08:07;;;;;;;0.68;0.68;;;;;;;1.09;76.73;98694.22;1700645;83;21105;-39
2022/01/29 04:10:32;;;;;;;0.50;0.50;;;;;;;1.08;76.33;98695.31;1699929;84;21556;-39
2022/01/29 04:12:59;;;;;;;0.50;0.50;;;;;;;1.10;76.21;98706.48;1716487;83;21586;-39
2022/01/29 04:15:25;;;;;;;0.82;0.68;;;;;;;1.11;76.25;98705.38;1690082;84;21113;-39
2022/01/29 04:17:52;;;;;;;0.60;0.60;;;;;;;1.13;76.37;98707.17;1684151;84;21276;-39
2022/01/29 04:20:21;;;;;;;0.85;0.60;;;;;;;1.13;76.41;98714.39;1714433;83;20945;-39
2022/01/29 04:22:47;;;;;;;2.15;0.70;;;;;;;1.13;76.37;98711.17;1700713;83;21603;-39
2022/01/29 04:25:14;;;;;;;2.20;0.80;;;;;;;1.12;76.35;98718.94;1712863;83;20996;-39
2022/01/29 04:27:44;;;;;;;1.52;0.80;;;;;;;1.11;76.39;98725.41;1697288;83;21156;-39
2022/01/29 04:30:26;;;;;;;1.32;0.85;;;;;;;1.11;76.46;98725.41;1691838;83;21541;-39
2022/01/29 04:35:15;;;;;;;0.90;0.70;;;;;;;1.10;76.78;98737.17;1698149;83;21028;-40
2022/01/29 04:37:42;;;;;;;1.50;0.90;;;;;;;1.11;76.93;98733.41;1695618;83;21061;-41
2022/01/29 04:40:11;;;;;;;0.80;0.80;;;;;;;1.12;76.94;98741.63;1707252;83;21099;-40
2022/01/29 04:42:38;;;;;;;1.45;0.78;;;;;;;1.12;77.05;98744.30;1716208;83;21571;-40
2022/01/29 04:45:06;;;;;;;1.10;0.70;;;;;;;1.11;77.00;98749.43;1716063;83;21048;-41
2022/01/29 04:47:33;;;;;;;0.90;0.70;;;;;;;1.10;77.00;98748.40;1694706;83;21067;-40
2022/01/29 04:49:59;;;;;;;0.70;0.60;;;;;;;1.11;76.99;98751.31;1720717;83;21017;-40
2022/01/29 04:52:26;;;;;;;0.82;0.82;;;;;;;1.09;76.66;98748.94;1690821;84;21967;-40
2022/01/29 04:54:52;;;;;;;0.60;0.60;;;;;;;1.06;76.58;98754.91;1701898;83;21023;-40
2022/01/29 04:57:20;;;;;;;1.10;0.80;;;;;;;1.06;76.59;98766.14;1702375;84;21009;-40
2022/01/29 04:59:47;;;;;;;1.92;0.80;;;;;;;1.04;76.43;98758.44;1702479;84;20989;-40
2022/01/29 05:02:14;;;;;;;1.62;0.95;;;;;;;1.04;76.34;98760.31;1700889;84;21023;-40
2022/01/29 05:04:40;;;;;;;1.27;0.80;;;;;;;1.02;76.20;98775.30;1689274;84;21627;-40
2022/01/29 05:07:07;;;;;;;0.98;0.85;;;;;;;1.01;76.04;98769.74;1702722;84;21073;-40
2022/01/29 05:09:34;;;;;;;0.90;0.70;;;;;;;1.00;75.99;98774.83;1698939;84;21069;-40
2022/01/29 05:12:02;;;;;;;1.62;0.90;;;;;;;1.00;75.85;98779.38;1699345;84;21002;-40
2022/01/29 05:14:41;;;;;;;1.82;0.95;;;;;;;0.97;75.69;98781.34;1702254;83;21090;-41
2022/01/29 05:27:31;;;;;;;1.25;0.82;;;;;;;0.86;75.74;98818.20;1685508;83;21099;-40
2022/01/29 05:29:57;;;;;;;2.40;0.90;;;;;;;0.85;75.69;98817.95;1751014;82;21804;-40
2022/01/29 05:32:24;;;;;;;1.17;0.85;;;;;;;0.86;75.74;98818.20;1710538;82;21057;-40
2022/01/29 05:34:50;;;;;;;0.80;0.80;;;;;;;0.88;75.90;98815.99;1674416;84;21028;-40
2022/01/29 05:37:17;;;;;;;1.75;0.80;;;;;;;0.90;75.76;98827.16;1680008;84;21090;-40
2022/01/29 05:39:43;;;;;;;1.57;0.95;;;;;;;0.88;75.73;98823.45;1685225;83;21026;-40
2022/01/29 05:42:10;;;;;;;1.35;0.90;;;;;;;0.85;75.74;98838.75;1689849;83;21166;-40
2022/01/29 05:44:36;;;;;;;0.93;0.75;;;;;;;0.79;75.69;98839.19;1705962;83;21000;-40
2022/01/29 05:47:03;;;;;;;1.70;0.90;;;;;;;0.79;75.59;98839.19;1704486;83;20998;-40
2022/01/29 05:49:31;;;;;;;0.93;0.90;;;;;;;0.77;75.50;98846.73;1684212;85;21585;-40
2022/01/29 05:51:57;;;;;;;1.50;0.85;;;;;;;0.77;75.40;98855.52;1684261;84;21062;-40
2022/01/29 05:54:23;;;;;;;1.15;1.00;;;;;;;0.79;75.35;98860.53;1702155;83;21121;-40
2022/01/29 05:56:50;;;;;;;1.17;1.07;;;;;;;0.82;75.27;98871.95;1712755;83;21082;-40
2022/01/29 05:59:16;;;;;;;2.85;0.90;;;;;;;0.84;75.18;98876.41;1711986;83;21017;-40
2022/01/29 06:01:43;;;;;;;2.33;0.95;;;;;;;0.86;75.13;98874.23;1712209;83;21074;-40
2022/01/29 06:04:09;;;;;;;1.62;0.88;;;;;;;0.88;75.17;98883.49;1713238;83;21006;-40
2022/01/29 06:06:36;;;;;;;2.00;1.17;;;;;;;0.91;75.29;98886.66;1712898;83;21900;-40
2022/01/29 06:09:04;;;;;;;2.00;1.52;;;;;;;0.91;75.28;98891.45;1715336;83;21044;-40
2022/01/29 06:11:32;;;;;;;1.87;1.02;;;;;;;0.92;75.40;98890.33;1720479;82;21008;-40
2022/01/29 06:14:00;;;;;;;1.17;1.00;;;;;;;0.94;75.36;98898.83;1724171;82;20982;-40
2022/01/29 06:16:27;;;;;;;1.30;1.00;;;;;;;0.93;75.42;98897.80;1742710;80;21065;-40
2022/01/29 06:18:55;;;;;;;1.60;1.10;;;;;;;0.93;75.46;98902.59;1743251;81;21563;-40
2022/01/29 06:21:22;;;;;;;1.70;1.00;;;;;;;0.90;75.71;98903.21;1743196;82;20927;-40
2022/01/29 06:23:48;;;;;;;2.12;0.80;;;;;;;0.88;76.01;98906.72;1707499;83;21518;-40
2022/01/29 06:26:16;;;;;;;1.00;0.90;;;;;;;0.86;76.30;98912.92;1702018;84;21044;-40
2022/01/29 06:28:43;;;;;;;1.20;1.00;;;;;;;0.83;76.10;98910.85;1713454;83;21010;-40
2022/01/29 06:31:10;;;;;;;1.42;0.90;;;;;;;0.82;75.94;98921.31;1717765;81;21205;-40
2022/01/29 06:33:37;;;;;;;1.50;0.90;;;;;;;0.81;75.67;98919.72;1726478;82;21593;-40
2022/01/29 06:36:05;;;;;;;3.05;0.90;;;;;;;0.79;75.13;98915.23;1729354;82;20989;-40
2022/01/29 06:38:32;;;;;;;3.33;0.93;;;;;;;0.79;74.87;98925.90;1699509;84;21053;-40
2022/01/29 06:40:58;;;;;;;1.55;0.88;;;;;;;0.81;74.71;98927.19;1683963;84;21529;-40
2022/01/29 06:43:26;;;;;;;1.10;1.00;;;;;;;0.79;74.09;98932.03;1694090;84;21608;-40
2022/01/29 06:45:53;;;;;;;0.95;0.80;;;;;;;0.80;74.10;98935.48;1707534;84;20965;-40
2022/01/29 06:48:19;;;;;;;0.85;0.80;;;;;;;0.79;74.05;98941.37;1707926;83;21005;-40
2022/01/29 06:50:46;;;;;;;2.15;1.00;;;;;;;0.81;74.09;98944.53;1699566;83;21091;-40
2022/01/29 06:53:13;;;;;;;1.00;0.90;;;;;;;0.83;73.60;98944.20;1720467;80;20991;-40
2022/01/29 06:55:40;;;;;;;3.42;0.98;;;;;;;0.82;73.37;98950.66;1747111;80;21113;-41
2022/01/29 06:58:08;;;;;;;2.60;1.15;;;;;;;0.80;73.17;98938.95;1735137;80;21020;-40
2022/01/29 07:00:35;;;;;;;1.27;0.75;;;;;;;0.79;73.08;98944.03;1724312;81;21037;-40
2022/01/29 07:03:02;;;;;;;0.85;0.65;;;;;;;0.79;73.05;98944.03;1728403;80;21524;-40
2022/01/29 07:05:29;;;;;;;1.87;1.20;;;;;;;0.79;72.93;98941.91;1741812;82;21001;-40
2022/01/29 07:07:56;;;;;;;3.00;0.93;;;;;;;0.78;72.90;98957.67;1742446;82;21122;-40
2022/01/29 07:10:22;;;;;;;2.00;1.15;;;;;;;0.75;72.99;98961.75;1754160;81;20957;-40
2022/01/29 07:12:49;;;;;;;3.05;0.90;;;;;;;0.74;73.06;98962.05;1754976;81;20934;-40
2022/01/29 07:15:16;;;;;;;1.32;1.00;;;;;;;0.72;73.18;98966.38;1755564;81;21559;-40
2022/01/29 07:17:43;;;;;;;2.10;1.20;;;;;;;0.73;73.27;98966.59;1756503;81;21072;-40
2022/01/29 07:20:11;;;;;;;3.37;1.20;;;;;;;0.73;73.26;98969.80;1756433;81;21535;-40
2022/01/29 07:22:39;;;;;;;1.50;0.90;;;;;;;0.73;73.33;98975.92;1721373;82;21036;-40
2022/01/29 07:25:07;;;;;;;1.32;1.00;;;;;;;0.75;73.52;98975.63;1720465;82;20988;-40
2022/01/29 07:27:36;;;;;;;1.98;1.20;;;;;;;0.78;73.37;98976.34;1718570;83;21040;-40
2022/01/29 07:30:04;;;;;;;1.52;1.10;;;;;;;0.76;73.31;98985.22;1720405;83;21028;-40
2022/01/29 07:32:31;;;;;;;1.30;0.95;;;;;;;0.74;73.65;98982.05;1720394;83;21197;-40
2022/01/29 07:34:58;;;;;;;1.27;1.10;;;;;;;0.73;73.59;98984.47;1715100;83;21807;-40
2022/01/29 07:37:26;;;;;;;1.22;0.93;;;;;;;0.72;73.61;98986.38;1717242;83;20954;-40
2022/01/29 07:39:53;;;;;;;1.37;0.95;;;;;;;0.73;73.70;98995.14;1694804;83;20993;-40
2022/01/29 07:42:19;;;;;;;1.55;1.07;;;;;;;0.73;73.82;98998.61;1718313;82;21508;-40
2022/01/29 07:44:46;;;;;;;1.82;1.30;;;;;;;0.73;73.94;99001.81;1701765;83;21127;-40
2022/01/29 07:47:13;;;;;;;1.72;1.17;;;;;;;0.77;74.05;99006.81;1691424;84;21038;-40
2022/01/29 07:49:40;;;;;;;1.05;0.93;;;;;;;0.79;73.85;99011.28;1716873;83;21047;-40
2022/01/29 07:52:07;;;;;;;2.12;1.00;;;;;;;0.75;73.62;99016.98;1696892;83;21519;-40
2022/01/29 07:54:33;;;;;;;1.90;1.10;;;;;;;0.70;73.71;99010.44;1706217;83;21547;-40
2022/01/29 07:57:00;;;;;;;1.32;1.12;;;;;;;0.71;73.77;99018.69;1708471;83;21593;-40
2022/01/29 07:59:26;;;;;;;1.10;1.00;;;;;;;0.71;73.78;99017.35;1691611;84;20960;-40
2022/01/29 08:01:53;;;;;;;1.12;1.00;;;;;;;0.73;73.44;99021.83;1693942;82;20983;-40
2022/01/29 08:04:23;;;;;;;1.55;1.20;;;;;;;0.72;73.21;99028.27;1727050;82;21003;-40
2022/01/29 08:06:49;;;;;;;4.72;1.32;;;;;;;0.74;73.22;99028.74;1702733;82;21557;-40
2022/01/29 08:09:15;;;;;;;2.47;1.22;;;;;;;0.75;72.87;99026.33;1717444;83;21120;-40
2022/01/29 08:11:42;;;;;;;1.57;1.30;;;;;;;0.74;72.71;99033.53;1712097;83;21080;-40
2022/01/29 08:14:10;;;;;;;3.08;1.52;;;;;;;0.73;72.78;99039.95;1715338;83;21083;-40
2022/01/29 08:16:36;;;;;;;2.83;1.37;;;;;;;0.75;72.78;99041.00;1751051;82;21629;-40
2022/01/29 08:19:02;;;;;;;2.27;1.30;;;;;;;0.75;72.81;99035.66;1734234;82;21092;-40
2022/01/29 08:21:30;;;;;;;2.10;1.30;;;;;;;0.74;72.81;99038.88;1721386;83;21218;-40
2022/01/29 08:23:56;;;;;;;2.15;1.20;;;;;;;0.74;73.03;99046.09;1721856;82;21512;-40
2022/01/29 08:26:23;;;;;;;4.55;1.22;;;;;;;0.73;73.12;99048.50;1688122;83;21058;-40
2022/01/29 08:28:49;;;;;;;1.57;1.30;;;;;;;0.72;73.15;99052.28;1698497;83;21056;-40
2022/01/29 08:31:16;;;;;;;1.67;1.20;;;;;;;0.75;73.23;99048.46;1751140;82;21053;-40
2022/01/29 08:33:42;;;;;;;1.90;1.17;;;;;;;0.77;73.15;99054.84;1749252;82;21096;-40
2022/01/29 08:36:09;;;;;;;2.55;1.02;;;;;;;0.77;72.68;99054.84;1737982;82;21013;-40
2022/01/29 08:38:35;;;;;;;2.42;1.30;;;;;;;0.74;71.73;99060.76;1736520;80;20972;-40
2022/01/29 08:41:03;;;;;;;2.33;1.47;;;;;;;0.75;71.78;99058.34;1735739;80;20961;-40
2022/01/29 08:43:32;;;;;;;2.85;1.70;;;;;;;0.67;71.76;99053.20;1713928;82;21000;-40
2022/01/29 08:46:00;;;;;;;3.87;1.90;;;;;;;0.76;71.79;99072.72;1725535;82;21719;-40
2022/01/29 08:48:27;;;;;;;2.50;2.10;;;;;;;0.77;71.68;99064.17;1712186;83;21526;-40
2022/01/29 08:50:53;;;;;;;4.92;2.60;;;;;;;0.41;71.59;99010.30;1748917;80;21551;-40
2022/01/29 08:53:20;;;;;;;3.33;1.25;;;;;;;0.79;71.48;99068.65;1723598;80;21630;-40
2022/01/29 08:55:47;;;;;;;1.70;1.30;;;;;;;0.78;71.46;99077.20;1735850;80;21661;-40
2022/01/29 08:58:14;;;;;;;2.08;1.50;;;;;;;0.77;71.14;99080.19;1740948;80;21109;-40
2022/01/29 09:00:44;;;;;;;3.15;1.35;;;;;;;0.74;70.94;99072.77;1721198;83;20929;-40
2022/01/29 09:03:13;;;;;;;1.90;1.30;;;;;;;0.76;71.22;99074.59;1725258;80;21024;-40
2022/01/29 09:05:40;;;;;;;2.00;1.47;;;;;;;0.77;71.29;99080.98;1703345;82;20960;-40
2022/01/29 09:08:06;;;;;;;3.17;1.40;;;;;;;0.78;71.34;99080.41;1740030;82;21028;-40
2022/01/29 09:10:33;;;;;;;5.00;1.55;;;;;;;0.79;71.16;99088.66;1693177;83;21143;-40
2022/01/29 09:13:02;;;;;;;1.87;1.50;;;;;;;0.80;71.02;99091.58;1707071;84;20973;-40
2022/01/29 09:15:28;;;;;;;2.17;1.27;;;;;;;0.80;70.78;99087.58;1736613;80;20926;-40
2022/01/29 09:17:55;;;;;;;3.47;1.50;;;;;;;0.79;70.29;99094.79;1733781;80;21532;-40
2022/01/29 09:20:22;;;;;;;1.80;1.32;;;;;;;0.78;70.17;99091.08;1678015;85;20994;-40
2022/01/29 09:22:48;;;;;;;2.42;1.47;;;;;;;0.78;69.97;99096.41;1679167;85;21112;-40
2022/01/29 09:25:15;;;;;;;2.10;1.30;;;;;;;0.79;69.97;99096.66;1742903;82;21028;-40
2022/01/29 09:27:41;;;;;;;1.98;1.10;;;;;;;0.80;69.60;99096.91;1699949;83;21511;-40
2022/01/29 09:30:11;;;;;;;2.50;1.52;;;;;;;0.78;69.09;99103.88;1698325;84;21454;-40
2022/01/29 09:32:38;;;;;;;2.02;1.27;;;;;;;0.78;69.27;99103.09;1707248;84;21005;-40
2022/01/29 09:35:06;;;;;;;1.90;1.10;;;;;;;0.79;69.37;99107.34;1713575;83;21527;-40
2022/01/29 09:37:33;;;;;;;1.92;1.30;;;;;;;0.81;69.50;99108.63;1717231;82;21084;-40
2022/01/29 09:40:00;;;;;;;1.95;1.20;;;;;;;0.85;68.91;99106.14;1707511;82;21072;-40
2022/01/29 09:42:27;;;;;;;4.28;1.27;;;;;;;0.87;68.92;99106.64;1699743;84;21045;-40
2022/01/29 09:44:54;;;;;;;2.60;1.50;;;;;;;0.87;68.38;99098.64;1678986;85;21484;-40
2022/01/29 09:47:23;;;;;;;4.67;1.45;;;;;;;0.86;68.48;99103.18;1689015;84;21107;-40
2022/01/29 09:49:52;;;;;;;3.22;1.50;;;;;;;0.87;68.23;99101.30;1731689;80;21009;-40
2022/01/29 09:52:19;;;;;;;2.47;1.25;;;;;;;0.87;67.87;99106.64;1737573;81;21584;-40
2022/01/29 09:54:48;;;;;;;1.37;1.27;;;;;;;0.88;68.10;99109.53;1720747;82;21340;-40
2022/01/29 09:57:16;;;;;;;1.85;1.30;;;;;;;0.88;67.77;99110.86;1682043;84;21092;-40
2022/01/29 09:59:42;;;;;;;3.85;1.20;;;;;;;0.86;67.82;99101.05;1685302;84;21130;-40
2022/01/29 10:02:18;;;;;;;3.00;1.60;;;;;;;0.88;67.76;99114.87;1678951;85;20989;-40
2022/01/29 10:04:51;;;;;;;2.02;1.40;;;;;;;0.87;67.76;99108.73;1679134;84;21072;-40
2022/01/29 10:07:27;;;;;;;2.35;1.27;;;;;;;0.88;68.03;99120.20;1713645;82;21563;-40
2022/01/29 10:09:56;;;;;;;1.60;1.20;;;;;;;0.90;67.86;99123.38;1718487;82;21056;-40
2022/01/29 10:12:31;;;;;;;;;;;;;;;0.87;67.54;99126.66;1754913;80;20969;-42
2022/01/29 10:15:01;;;;;;;3.00;1.22;;;;;;;0.85;67.29;99120.82;1732864;81;20472;-40
2022/01/29 10:17:51;;;;;;;2.22;1.30;;;;;;;0.77;67.80;99118.88;1691671;84;21015;-40
2022/01/29 10:20:26;;;;;;;1.87;1.40;;;;;;;0.81;67.46;99129.98;1691772;84;20972;-40
2022/01/29 10:22:56;;;;;;;1.95;1.22;;;;;;;0.84;67.43;99133.91;1695105;83;21506;-40
2022/01/29 10:25:26;;;;;;;1.77;0.98;;;;;;;0.84;67.28;99136.58;1720632;83;21091;-40
2022/01/29 10:28:18;;;;;;;2.67;1.22;;;;;;;0.85;67.29;99132.83;1720363;83;21561;-40
2022/01/29 10:30:55;;;;;;;1.45;1.25;;;;;;;0.86;67.07;99141.08;1711963;83;21048;-40
2022/01/29 10:33:28;;;;;;;3.10;1.40;;;;;;;0.85;67.04;99146.17;1694754;83;21507;-40
2022/01/29 10:36:07;;;;;;;2.37;1.67;;;;;;;0.86;67.23;99139.20;1691704;84;21047;-40
2022/01/29 10:38:52;;;;;;;3.62;1.67;;;;;;;0.85;66.92;99143.50;1696801;83;21771;-40
2022/01/29 10:41:26;;;;;;;3.87;1.60;;;;;;;0.85;66.85;99146.17;1706940;83;21042;-40
2022/01/29 10:44:21;;;;;;;2.35;1.50;;;;;;;0.83;66.92;99139.00;1705788;82;21610;-40
2022/01/29 10:46:54;;;;;;;3.85;2.02;;;;;;;0.85;66.88;99145.63;1694874;82;21052;-41
2022/01/29 10:49:30;;;;;;;2.95;1.40;;;;;;;0.86;66.96;99143.21;1693669;83;21059;-40
2022/01/29 10:52:07;;;;;;;3.50;1.20;;;;;;;0.87;66.87;99146.67;1708469;83;21138;-40
2022/01/29 10:54:42;;;;;;;2.45;1.40;;;;;;;0.88;66.57;99141.55;1712283;83;21000;-40
2022/01/29 10:57:14;;;;;;;2.25;1.40;;;;;;;0.90;66.89;99148.73;1683721;84;21047;-40
2022/01/29 10:59:50;;;;;;;2.80;1.52;;;;;;;0.92;66.23;99149.20;1691143;84;20988;-40
2022/01/29 11:02:19;;;;;;;2.85;1.40;;;;;;;0.93;66.18;99146.78;1689242;82;21090;-40
2022/01/29 11:04:47;;;;;;;2.87;1.20;;;;;;;0.91;66.38;99146.31;1697744;83;21838;-41
2022/01/29 11:07:24;;;;;;;1.98;1.37;;;;;;;0.90;66.21;99144.73;1744025;82;20932;-40
2022/01/29 11:09:52;;;;;;;2.03;1.10;;;;;;;0.89;66.24;99144.47;1727198;82;21819;-41
2022/01/29 11:12:21;;;;;;;4.10;1.40;;;;;;;0.92;66.27;99142.52;1765676;80;21026;-41
2022/01/29 11:14:51;;;;;;;4.12;1.75;;;;;;;0.94;66.27;99144.36;1746745;80;21097;-41
2022/01/29 11:17:18;;;;;;;2.65;1.40;;;;;;;0.99;66.10;99156.27;1752574;80;21121;-41
2022/01/29 11:19:46;;;;;;;2.12;1.30;;;;;;;1.02;65.71;99148.98;1707028;84;21031;-41
2022/01/29 11:22:13;;;;;;;1.98;1.42;;;;;;;1.06;65.55;99153.19;1736618;82;21006;-41
2022/01/29 11:24:41;;;;;;;3.40;1.57;;;;;;;1.10;65.42;99155.49;1734472;82;20970;-41
2022/01/29 11:27:23;;;;;;;3.77;1.55;;;;;;;1.07;65.29;99156.88;1753154;80;21081;-41
2022/01/29 11:30:09;;;;;;;2.58;1.40;;;;;;;1.11;65.36;99160.54;1731476;82;21131;-40
2022/01/29 11:32:47;;;;;;;2.42;1.20;;;;;;;1.16;65.62;99163.06;1690706;83;20968;-41
2022/01/29 11:35:22;;;;;;;3.47;1.42;;;;;;;1.22;64.89;99167.75;1732667;82;20898;-41
2022/01/29 11:38:04;;;;;;;5.17;1.65;;;;;;;1.23;64.76;99163.99;1752624;80;21053;-41
2022/01/29 11:40:36;;;;;;;2.75;1.17;;;;;;;1.23;64.84;99162.66;1702659;84;21035;-41
2022/01/29 11:43:23;;;;;;;4.50;1.30;;;;;;;1.26;64.78;99168.17;1730856;81;21115;-41
2022/01/29 11:46:15;;;;;;;3.40;1.45;;;;;;;1.26;64.09;99176.19;1723586;82;20930;-41
2022/01/29 11:48:55;;;;;;;2.45;1.20;;;;;;;1.25;63.84;99169.29;1692509;84;21016;-41
2022/01/29 11:51:47;;;;;;;2.55;1.30;;;;;;;1.24;63.48;99170.37;1737886;82;20967;-41
2022/01/29 11:54:20;;;;;;;2.90;1.30;;;;;;;1.24;63.25;99169.58;1706531;84;20994;-41
2022/01/29 11:56:47;;;;;;;2.90;1.30;;;;;;;1.22;63.31;99173.88;1742965;82;21882;-41
2022/01/29 11:59:24;;;;;;;2.30;1.17;;;;;;;1.25;63.03;99169.29;1728933;80;20999;-41
2022/01/29 12:01:58;;;;;;;2.17;1.30;;;;;;;1.30;62.25;99171.05;1741372;80;21096;-41